sensor_id;sensor_type;location;lat;lon;timestamp;pressure;altitude;pressure_sealevel;temperature;humidity
4705;BME280;2366;51.332;6.610;2022-11-20T00:01:10;101142.38;;;3.57;65.08
4705;BME280;2366;51.332;6.610;2022-11-20T00:03:35;101141.63;;;3.52;65.04
4705;BME280;2366;51.332;6.610;2022-11-20T00:06:02;101142.53;;;3.51;65.41
4705;BME280;2366;51.332;6.610;2022-11-20T00:08:27;101153.63;;;3.62;66.43
4705;BME280;2366;51.332;6.610;2022-11-20T00:10:53;101148.97;;;3.74;66.17
4705;BME280;2366;51.332;6.610;2022-11-20T00:13:18;101148.75;;;3.81;66.05
4705;BME280;2366;51.332;6.610;2022-11-20T00:15:44;101150.44;;;3.84;65.53
4705;BME280;2366;51.332;6.610;2022-11-20T00:18:09;101148.63;;;3.86;65.12
4705;BME280;2366;51.332;6.610;2022-11-20T00:20:34;101145.38;;;3.76;65.01
4705;BME280;2366;51.332;6.610;2022-11-20T00:23:00;101149.25;;;3.61;65.42
4705;BME280;2366;51.332;6.610;2022-11-20T00:25:25;101143.06;;;3.64;65.54
4705;BME280;2366;51.332;6.610;2022-11-20T00:27:50;101145.69;;;3.64;65.25
4705;BME280;2366;51.332;6.610;2022-11-20T00:30:16;101153.69;;;3.59;65.24
4705;BME280;2366;51.332;6.610;2022-11-20T00:32:41;101152.88;;;3.57;65.51
4705;BME280;2366;51.332;6.610;2022-11-20T00:35:07;101146.03;;;3.52;64.98
4705;BME280;2366;51.332;6.610;2022-11-20T00:37:32;101144.94;;;3.60;65.97
4705;BME280;2366;51.332;6.610;2022-11-20T00:39:57;101149.09;;;3.69;65.61
4705;BME280;2366;51.332;6.610;2022-11-20T00:42:23;101144.19;;;3.88;65.69
4705;BME280;2366;51.332;6.610;2022-11-20T00:44:48;101137.34;;;3.84;65.00
4705;BME280;2366;51.332;6.610;2022-11-20T00:47:13;101138.25;;;3.81;64.93
4705;BME280;2366;51.332;6.610;2022-11-20T00:49:39;101133.50;;;3.63;64.96
4705;BME280;2366;51.332;6.610;2022-11-20T00:52:04;101134.66;;;3.51;64.84
4705;BME280;2366;51.332;6.610;2022-11-20T00:54:29;101129.88;;;3.33;64.85
4705;BME280;2366;51.332;6.610;2022-11-20T00:56:55;101133.63;;;3.22;64.91
4705;BME280;2366;51.332;6.610;2022-11-20T00:59:20;101131.81;;;3.24;65.99
4705;BME280;2366;51.332;6.610;2022-11-20T01:01:45;101126.16;;;3.43;65.46
4705;BME280;2366;51.332;6.610;2022-11-20T01:04:11;101122.22;;;3.59;65.30
4705;BME280;2366;51.332;6.610;2022-11-20T01:06:39;101122.16;;;3.62;64.33
4705;BME280;2366;51.332;6.610;2022-11-20T01:09:07;101118.88;;;3.54;64.09
4705;BME280;2366;51.332;6.610;2022-11-20T01:11:38;101112.75;;;3.54;64.64
4705;BME280;2366;51.332;6.610;2022-11-20T01:14:06;101112.81;;;3.50;64.74
4705;BME280;2366;51.332;6.610;2022-11-20T01:16:34;101111.84;;;3.55;65.31
4705;BME280;2366;51.332;6.610;2022-11-20T01:19:02;101118.88;;;3.54;64.66
4705;BME280;2366;51.332;6.610;2022-11-20T01:21:33;101118.63;;;3.63;65.36
4705;BME280;2366;51.332;6.610;2022-11-20T01:23:59;101118.47;;;3.69;64.34
4705;BME280;2366;51.332;6.610;2022-11-20T01:26:27;101121.22;;;3.65;64.05
4705;BME280;2366;51.332;6.610;2022-11-20T01:28:55;101117.53;;;3.70;64.54
4705;BME280;2366;51.332;6.610;2022-11-20T01:31:26;101120.72;;;3.83;64.16
4705;BME280;2366;51.332;6.610;2022-11-20T01:33:53;101119.53;;;3.95;64.08
4705;BME280;2366;51.332;6.610;2022-11-20T01:36:20;101112.41;;;3.99;64.25
4705;BME280;2366;51.332;6.610;2022-11-20T01:38:46;101113.03;;;4.08;64.12
4705;BME280;2366;51.332;6.610;2022-11-20T01:41:13;101109.56;;;4.08;63.72
4705;BME280;2366;51.332;6.610;2022-11-20T01:43:59;101102.44;;;4.11;64.15
4705;BME280;2366;51.332;6.610;2022-11-20T01:46:25;101106.00;;;4.09;63.84
4705;BME280;2366;51.332;6.610;2022-11-20T01:51:23;101100.91;;;4.04;63.48
4705;BME280;2366;51.332;6.610;2022-11-20T01:53:52;101097.50;;;4.01;63.60
4705;BME280;2366;51.332;6.610;2022-11-20T01:56:19;101112.22;;;4.06;63.47
4705;BME280;2366;51.332;6.610;2022-11-20T01:58:48;101099.88;;;4.10;63.01
4705;BME280;2366;51.332;6.610;2022-11-20T02:01:15;101101.69;;;4.08;63.29
4705;BME280;2366;51.332;6.610;2022-11-20T02:03:41;101099.00;;;4.09;63.47
4705;BME280;2366;51.332;6.610;2022-11-20T02:06:18;101101.47;;;4.14;63.53
4705;BME280;2366;51.332;6.610;2022-11-20T02:08:44;101098.19;;;4.07;63.86
4705;BME280;2366;51.332;6.610;2022-11-20T02:11:09;101100.78;;;4.09;63.51
4705;BME280;2366;51.332;6.610;2022-11-20T02:13:35;101091.38;;;4.00;63.79
4705;BME280;2366;51.332;6.610;2022-11-20T02:16:12;101080.22;;;3.94;64.41
4705;BME280;2366;51.332;6.610;2022-11-20T02:18:40;101080.31;;;3.90;64.42
4705;BME280;2366;51.332;6.610;2022-11-20T02:26:23;101080.63;;;3.78;64.72
4705;BME280;2366;51.332;6.610;2022-11-20T02:28:49;101078.00;;;3.78;64.72
4705;BME280;2366;51.332;6.610;2022-11-20T02:31:15;101072.09;;;3.70;65.38
4705;BME280;2366;51.332;6.610;2022-11-20T02:33:41;101078.91;;;3.77;65.26
4705;BME280;2366;51.332;6.610;2022-11-20T02:36:08;101070.81;;;3.85;65.36
4705;BME280;2366;51.332;6.610;2022-11-20T02:38:36;101071.66;;;3.87;65.10
4705;BME280;2366;51.332;6.610;2022-11-20T02:41:02;101068.94;;;3.90;65.33
4705;BME280;2366;51.332;6.610;2022-11-20T02:43:27;101062.75;;;3.93;65.62
4705;BME280;2366;51.332;6.610;2022-11-20T02:45:53;101064.44;;;3.95;65.24
4705;BME280;2366;51.332;6.610;2022-11-20T02:48:18;101056.72;;;3.89;65.16
4705;BME280;2366;51.332;6.610;2022-11-20T02:50:43;101058.44;;;3.90;65.62
4705;BME280;2366;51.332;6.610;2022-11-20T02:53:09;101062.78;;;3.91;65.26
4705;BME280;2366;51.332;6.610;2022-11-20T02:55:35;101060.34;;;3.85;65.90
4705;BME280;2366;51.332;6.610;2022-11-20T02:58:00;101065.75;;;3.79;65.69
4705;BME280;2366;51.332;6.610;2022-11-20T03:00:25;101060.75;;;3.69;65.50
4705;BME280;2366;51.332;6.610;2022-11-20T03:02:51;101062.75;;;3.60;65.99
4705;BME280;2366;51.332;6.610;2022-11-20T03:05:16;101061.44;;;3.45;66.88
4705;BME280;2366;51.332;6.610;2022-11-20T03:07:43;101061.78;;;3.29;67.39
4705;BME280;2366;51.332;6.610;2022-11-20T03:10:08;101069.59;;;3.33;68.01
4705;BME280;2366;51.332;6.610;2022-11-20T03:12:34;101065.19;;;3.35;68.16
4705;BME280;2366;51.332;6.610;2022-11-20T03:14:59;101059.25;;;3.26;67.62
4705;BME280;2366;51.332;6.610;2022-11-20T03:17:24;101065.56;;;3.19;68.18
4705;BME280;2366;51.332;6.610;2022-11-20T03:19:50;101071.00;;;3.10;67.92
4705;BME280;2366;51.332;6.610;2022-11-20T03:22:15;101066.81;;;3.04;68.84
4705;BME280;2366;51.332;6.610;2022-11-20T03:24:40;101069.41;;;3.06;68.75
4705;BME280;2366;51.332;6.610;2022-11-20T03:27:06;101071.78;;;3.15;68.98
4705;BME280;2366;51.332;6.610;2022-11-20T03:29:31;101075.13;;;3.22;69.53
4705;BME280;2366;51.332;6.610;2022-11-20T03:31:57;101070.28;;;3.41;69.73
4705;BME280;2366;51.332;6.610;2022-11-20T03:34:22;101069.03;;;3.54;69.15
4705;BME280;2366;51.332;6.610;2022-11-20T03:36:48;101072.22;;;3.65;69.67
4705;BME280;2366;51.332;6.610;2022-11-20T03:39:13;101067.59;;;3.75;69.24
4705;BME280;2366;51.332;6.610;2022-11-20T03:41:41;101068.47;;;3.76;69.23
4705;BME280;2366;51.332;6.610;2022-11-20T03:44:08;101060.75;;;3.69;68.97
4705;BME280;2366;51.332;6.610;2022-11-20T03:46:34;101063.28;;;3.73;69.08
4705;BME280;2366;51.332;6.610;2022-11-20T03:49:00;101062.41;;;3.74;68.57
4705;BME280;2366;51.332;6.610;2022-11-20T03:51:31;101067.47;;;3.80;68.97
4705;BME280;2366;51.332;6.610;2022-11-20T03:54:00;101073.31;;;3.89;68.15
4705;BME280;2366;51.332;6.610;2022-11-20T03:56:28;101072.19;;;3.98;68.81
4705;BME280;2366;51.332;6.610;2022-11-20T03:58:54;101071.25;;;4.01;68.14
4705;BME280;2366;51.332;6.610;2022-11-20T04:01:22;101068.09;;;3.88;67.88
4705;BME280;2366;51.332;6.610;2022-11-20T04:03:48;101064.50;;;3.92;67.82
4705;BME280;2366;51.332;6.610;2022-11-20T04:06:26;101061.75;;;3.97;67.72
4705;BME280;2366;51.332;6.610;2022-11-20T04:08:54;101057.22;;;3.70;68.10
4705;BME280;2366;51.332;6.610;2022-11-20T04:11:23;101052.34;;;3.89;68.36
4705;BME280;2366;51.332;6.610;2022-11-20T04:13:54;101049.53;;;3.96;67.69
4705;BME280;2366;51.332;6.610;2022-11-20T04:16:21;101047.50;;;4.05;67.59
4705;BME280;2366;51.332;6.610;2022-11-20T04:18:46;101049.00;;;4.14;67.79
4705;BME280;2366;51.332;6.610;2022-11-20T04:21:12;101040.88;;;4.23;67.69
4705;BME280;2366;51.332;6.610;2022-11-20T04:23:37;101045.81;;;4.34;67.00
4705;BME280;2366;51.332;6.610;2022-11-20T04:26:09;101044.81;;;4.38;66.90
4705;BME280;2366;51.332;6.610;2022-11-20T04:28:35;101044.81;;;4.38;67.00
4705;BME280;2366;51.332;6.610;2022-11-20T04:31:09;101053.50;;;4.40;66.94
4705;BME280;2366;51.332;6.610;2022-11-20T04:33:35;101049.94;;;4.41;66.65
4705;BME280;2366;51.332;6.610;2022-11-20T04:36:12;101049.94;;;4.41;67.18
4705;BME280;2366;51.332;6.610;2022-11-20T04:38:38;101043.66;;;4.47;66.32
4705;BME280;2366;51.332;6.610;2022-11-20T04:41:07;101052.25;;;4.52;66.68
4705;BME280;2366;51.332;6.610;2022-11-20T04:43:33;101044.13;;;4.60;66.75
4705;BME280;2366;51.332;6.610;2022-11-20T04:45:59;101040.59;;;4.61;66.71
4705;BME280;2366;51.332;6.610;2022-11-20T04:48:26;101039.97;;;4.52;66.08
4705;BME280;2366;51.332;6.610;2022-11-20T04:50:52;101045.63;;;4.40;66.21
4705;BME280;2366;51.332;6.610;2022-11-20T04:53:19;101049.16;;;4.38;66.58
4705;BME280;2366;51.332;6.610;2022-11-20T04:55:45;101050.13;;;4.35;66.30
4705;BME280;2366;51.332;6.610;2022-11-20T04:58:11;101045.84;;;4.32;66.42
4705;BME280;2366;51.332;6.610;2022-11-20T05:00:37;101044.22;;;4.28;66.43
4705;BME280;2366;51.332;6.610;2022-11-20T05:03:02;101039.44;;;4.11;66.36
4705;BME280;2366;51.332;6.610;2022-11-20T05:05:28;101046.50;;;4.09;66.71
4705;BME280;2366;51.332;6.610;2022-11-20T05:07:56;101047.59;;;4.02;67.08
4705;BME280;2366;51.332;6.610;2022-11-20T05:10:21;101040.69;;;4.00;67.24
4705;BME280;2366;51.332;6.610;2022-11-20T05:12:47;101047.81;;;3.95;67.32
4705;BME280;2366;51.332;6.610;2022-11-20T05:15:12;101042.66;;;3.91;67.07
4705;BME280;2366;51.332;6.610;2022-11-20T05:17:37;101046.13;;;3.92;67.62
4705;BME280;2366;51.332;6.610;2022-11-20T05:20:03;101045.97;;;3.98;67.89
4705;BME280;2366;51.332;6.610;2022-11-20T05:22:28;101042.34;;;4.02;67.24
4705;BME280;2366;51.332;6.610;2022-11-20T05:24:54;101037.94;;;4.03;67.27
4705;BME280;2366;51.332;6.610;2022-11-20T05:27:20;101038.91;;;4.00;67.56
4705;BME280;2366;51.332;6.610;2022-11-20T05:29:45;101037.19;;;3.99;67.24
4705;BME280;2366;51.332;6.610;2022-11-20T05:32:10;101036.38;;;3.97;67.37
4705;BME280;2366;51.332;6.610;2022-11-20T05:34:36;101032.94;;;3.95;67.25
4705;BME280;2366;51.332;6.610;2022-11-20T05:37:02;101028.69;;;3.91;67.37
4705;BME280;2366;51.332;6.610;2022-11-20T05:39:28;101031.13;;;3.97;67.94
4705;BME280;2366;51.332;6.610;2022-11-20T05:41:53;101035.34;;;4.03;67.55
4705;BME280;2366;51.332;6.610;2022-11-20T05:44:39;101030.91;;;4.05;67.46
4705;BME280;2366;51.332;6.610;2022-11-20T05:47:05;101023.84;;;4.07;67.56
4705;BME280;2366;51.332;6.610;2022-11-20T05:49:31;101024.63;;;4.10;67.61
4705;BME280;2366;51.332;6.610;2022-11-20T05:51:56;101027.13;;;4.14;67.46
4705;BME280;2366;51.332;6.610;2022-11-20T05:54:22;101034.81;;;4.21;67.84
4705;BME280;2366;51.332;6.610;2022-11-20T05:56:47;101042.25;;;4.35;68.19
4705;BME280;2366;51.332;6.610;2022-11-20T05:59:12;101041.94;;;4.46;68.01
4705;BME280;2366;51.332;6.610;2022-11-20T06:01:38;101039.06;;;4.53;68.16
4705;BME280;2366;51.332;6.610;2022-11-20T06:04:03;101028.31;;;4.61;67.81
4705;BME280;2366;51.332;6.610;2022-11-20T06:06:29;101023.03;;;4.63;67.55
4705;BME280;2366;51.332;6.610;2022-11-20T06:08:54;101025.63;;;4.64;67.52
4705;BME280;2366;51.332;6.610;2022-11-20T06:11:20;101023.81;;;4.66;67.30
4705;BME280;2366;51.332;6.610;2022-11-20T06:13:46;101022.91;;;4.66;67.45
4705;BME280;2366;51.332;6.610;2022-11-20T06:16:13;101029.06;;;4.66;67.50
4705;BME280;2366;51.332;6.610;2022-11-20T06:18:39;101021.88;;;4.71;67.82
4705;BME280;2366;51.332;6.610;2022-11-20T06:21:10;101026.09;;;4.77;67.28
4705;BME280;2366;51.332;6.610;2022-11-20T06:23:37;101026.78;;;4.82;67.38
4705;BME280;2366;51.332;6.610;2022-11-20T06:26:04;101025.81;;;4.85;66.97
4705;BME280;2366;51.332;6.610;2022-11-20T06:28:30;101035.47;;;4.84;66.98
4705;BME280;2366;51.332;6.610;2022-11-20T06:30:56;101024.84;;;4.87;67.79
4705;BME280;2366;51.332;6.610;2022-11-20T06:33:21;101027.28;;;4.93;67.55
4705;BME280;2366;51.332;6.610;2022-11-20T06:35:47;101028.09;;;4.96;67.05
4705;BME280;2366;51.332;6.610;2022-11-20T06:38:12;101035.88;;;4.99;67.43
4705;BME280;2366;51.332;6.610;2022-11-20T06:40:40;101034.03;;;5.01;67.38
4705;BME280;2366;51.332;6.610;2022-11-20T06:43:06;101033.13;;;5.03;67.09
4705;BME280;2366;51.332;6.610;2022-11-20T06:45:31;101041.06;;;5.00;67.10
4705;BME280;2366;51.332;6.610;2022-11-20T06:47:59;101039.31;;;5.01;67.54
4705;BME280;2366;51.332;6.610;2022-11-20T06:50:25;101047.16;;;5.02;67.34
4705;BME280;2366;51.332;6.610;2022-11-20T06:52:50;101048.13;;;5.00;67.31
4705;BME280;2366;51.332;6.610;2022-11-20T06:55:15;101052.72;;;4.93;67.55
4705;BME280;2366;51.332;6.610;2022-11-20T06:57:41;101045.22;;;4.81;67.62
4705;BME280;2366;51.332;6.610;2022-11-20T07:00:07;101051.66;;;4.70;67.89
4705;BME280;2366;51.332;6.610;2022-11-20T07:02:32;101041.44;;;4.61;68.04
4705;BME280;2366;51.332;6.610;2022-11-20T07:04:57;101054.91;;;4.50;67.60
4705;BME280;2366;51.332;6.610;2022-11-20T07:07:23;101050.22;;;4.32;68.11
4705;BME280;2366;51.332;6.610;2022-11-20T07:09:48;101054.31;;;4.13;68.50
4705;BME280;2366;51.332;6.610;2022-11-20T07:12:13;101056.38;;;4.01;69.10
4705;BME280;2366;51.332;6.610;2022-11-20T07:14:39;101063.53;;;3.95;70.12
4705;BME280;2366;51.332;6.610;2022-11-20T07:17:04;101065.31;;;3.94;69.93
4705;BME280;2366;51.332;6.610;2022-11-20T07:19:29;101067.88;;;3.97;70.07
4705;BME280;2366;51.332;6.610;2022-11-20T07:21:55;101067.66;;;4.03;70.54
4705;BME280;2366;51.332;6.610;2022-11-20T07:24:20;101072.63;;;4.14;71.17
4705;BME280;2366;51.332;6.610;2022-11-20T07:26:46;101073.03;;;4.30;70.65
4705;BME280;2366;51.332;6.610;2022-11-20T07:29:12;101067.41;;;4.42;71.05
4705;BME280;2366;51.332;6.610;2022-11-20T07:31:37;101077.59;;;4.53;70.82
4705;BME280;2366;51.332;6.610;2022-11-20T07:34:03;101054.63;;;4.60;70.45
4705;BME280;2366;51.332;6.610;2022-11-20T07:36:28;101049.28;;;4.63;70.27
4705;BME280;2366;51.332;6.610;2022-11-20T07:38:53;101054.59;;;4.61;69.98
4705;BME280;2366;51.332;6.610;2022-11-20T07:41:19;101048.47;;;4.61;70.67
4705;BME280;2366;51.332;6.610;2022-11-20T07:43:44;101053.44;;;4.70;70.48
4705;BME280;2366;51.332;6.610;2022-11-20T07:46:10;101047.13;;;4.76;70.48
4705;BME280;2366;51.332;6.610;2022-11-20T07:48:35;101044.31;;;4.82;70.44
4705;BME280;2366;51.332;6.610;2022-11-20T07:51:00;101036.28;;;4.86;70.21
4705;BME280;2366;51.332;6.610;2022-11-20T07:53:26;101040.53;;;4.90;69.86
4705;BME280;2366;51.332;6.610;2022-11-20T07:55:51;101035.09;;;4.97;70.10
4705;BME280;2366;51.332;6.610;2022-11-20T07:58:18;101038.28;;;5.05;70.73
4705;BME280;2366;51.332;6.610;2022-11-20T08:00:44;101041.34;;;5.19;70.39
4705;BME280;2366;51.332;6.610;2022-11-20T08:03:09;101034.75;;;5.32;70.14
4705;BME280;2366;51.332;6.610;2022-11-20T08:05:35;101037.53;;;5.28;69.57
4705;BME280;2366;51.332;6.610;2022-11-20T08:08:00;101033.25;;;5.25;69.26
4705;BME280;2366;51.332;6.610;2022-11-20T08:10:25;101034.13;;;5.24;69.52
4705;BME280;2366;51.332;6.610;2022-11-20T08:12:52;101036.13;;;5.18;69.46
4705;BME280;2366;51.332;6.610;2022-11-20T08:15:38;101034.78;;;5.06;69.26
4705;BME280;2366;51.332;6.610;2022-11-20T08:18:05;101034.97;;;5.00;69.71
4705;BME280;2366;51.332;6.610;2022-11-20T08:20:31;101036.81;;;4.96;69.90
4705;BME280;2366;51.332;6.610;2022-11-20T08:22:58;101046.75;;;5.14;70.30
4705;BME280;2366;51.332;6.610;2022-11-20T08:25:25;101045.25;;;5.32;70.66
4705;BME280;2366;51.332;6.610;2022-11-20T08:27:50;101048.03;;;5.53;70.30
4705;BME280;2366;51.332;6.610;2022-11-20T08:30:15;101046.91;;;5.62;69.21
4705;BME280;2366;51.332;6.610;2022-11-20T08:32:41;101050.16;;;5.68;69.28
4705;BME280;2366;51.332;6.610;2022-11-20T08:35:06;101049.63;;;5.84;68.88
4705;BME280;2366;51.332;6.610;2022-11-20T08:37:32;101043.41;;;5.85;67.77
4705;BME280;2366;51.332;6.610;2022-11-20T08:39:57;101037.94;;;5.91;68.31
4705;BME280;2366;51.332;6.610;2022-11-20T08:42:23;101038.78;;;5.91;68.21
4705;BME280;2366;51.332;6.610;2022-11-20T08:44:48;101043.63;;;5.79;67.93
4705;BME280;2366;51.332;6.610;2022-11-20T08:47:14;101039.97;;;5.83;67.96
4705;BME280;2366;51.332;6.610;2022-11-20T08:49:39;101058.59;;;6.03;67.47
4705;BME280;2366;51.332;6.610;2022-11-20T08:52:04;101056.19;;;6.21;67.30
4705;BME280;2366;51.332;6.610;2022-11-20T08:54:30;101050.44;;;6.33;67.25
4705;BME280;2366;51.332;6.610;2022-11-20T08:56:56;101046.31;;;6.49;66.33
4705;BME280;2366;51.332;6.610;2022-11-20T08:59:21;101050.97;;;6.65;65.89
4705;BME280;2366;51.332;6.610;2022-11-20T09:01:46;101047.16;;;6.72;65.47
4705;BME280;2366;51.332;6.610;2022-11-20T09:04:12;101048.38;;;6.85;65.66
4705;BME280;2366;51.332;6.610;2022-11-20T09:06:39;101049.78;;;6.94;65.54
4705;BME280;2366;51.332;6.610;2022-11-20T09:09:05;101049.63;;;6.98;65.55
4705;BME280;2366;51.332;6.610;2022-11-20T09:11:31;101038.03;;;7.03;65.13
4705;BME280;2366;51.332;6.610;2022-11-20T09:13:56;101040.72;;;7.01;64.27
4705;BME280;2366;51.332;6.610;2022-11-20T09:16:21;101031.03;;;7.02;64.46
4705;BME280;2366;51.332;6.610;2022-11-20T09:18:49;101025.34;;;7.11;64.73
4705;BME280;2366;51.332;6.610;2022-11-20T09:21:14;101022.34;;;7.20;64.63
4705;BME280;2366;51.332;6.610;2022-11-20T09:23:40;101020.81;;;7.14;65.00
4705;BME280;2366;51.332;6.610;2022-11-20T09:26:09;101024.19;;;7.18;64.98
4705;BME280;2366;51.332;6.610;2022-11-20T09:28:35;101025.00;;;7.40;65.08
4705;BME280;2366;51.332;6.610;2022-11-20T09:31:00;101019.31;;;7.50;64.56
4705;BME280;2366;51.332;6.610;2022-11-20T09:33:29;101016.19;;;7.60;65.35
4705;BME280;2366;51.332;6.610;2022-11-20T09:35:54;101013.75;;;7.76;64.48
4705;BME280;2366;51.332;6.610;2022-11-20T09:38:20;101009.47;;;7.93;64.21
4705;BME280;2366;51.332;6.610;2022-11-20T09:43:28;101011.63;;;8.22;63.80
4705;BME280;2366;51.332;6.610;2022-11-20T09:51:39;101015.25;;;8.77;61.78
4705;BME280;2366;51.332;6.610;2022-11-20T09:56:42;101013.34;;;8.61;61.92
4705;BME280;2366;51.332;6.610;2022-11-20T10:01:47;101017.44;;;8.31;63.10
4705;BME280;2366;51.332;6.610;2022-11-20T10:04:15;101005.63;;;8.19;63.87
4705;BME280;2366;51.332;6.610;2022-11-20T10:06:50;101009.34;;;8.15;64.32
4705;BME280;2366;51.332;6.610;2022-11-20T10:09:30;101002.44;;;8.12;64.07
4705;BME280;2366;51.332;6.610;2022-11-20T10:23:35;100977.72;;;7.75;65.88
4705;BME280;2366;51.332;6.610;2022-11-20T10:26:22;100969.16;;;7.89;65.53
4705;BME280;2366;51.332;6.610;2022-11-20T10:31:31;100957.41;;;7.96;65.91
4705;BME280;2366;51.332;6.610;2022-11-20T10:34:01;100961.75;;;7.97;65.94
4705;BME280;2366;51.332;6.610;2022-11-20T10:36:34;100957.03;;;8.04;66.11
4705;BME280;2366;51.332;6.610;2022-11-20T10:39:07;100953.59;;;8.02;66.62
4705;BME280;2366;51.332;6.610;2022-11-20T10:41:41;100959.09;;;7.97;66.15
4705;BME280;2366;51.332;6.610;2022-11-20T10:44:14;100961.16;;;7.91;67.04
4705;BME280;2366;51.332;6.610;2022-11-20T10:47:19;100959.75;;;7.84;67.20
4705;BME280;2366;51.332;6.610;2022-11-20T10:49:50;100957.44;;;7.76;67.24
4705;BME280;2366;51.332;6.610;2022-11-20T10:54:56;100945.81;;;7.80;67.93
4705;BME280;2366;51.332;6.610;2022-11-20T10:57:53;100932.78;;;7.96;68.17
4705;BME280;2366;51.332;6.610;2022-11-20T11:00:20;100930.09;;;8.15;67.46
4705;BME280;2366;51.332;6.610;2022-11-20T11:02:53;100926.88;;;8.27;67.28
4705;BME280;2366;51.332;6.610;2022-11-20T11:05:35;100923.47;;;8.44;66.35
4705;BME280;2366;51.332;6.610;2022-11-20T11:08:02;100920.13;;;8.39;66.61
4705;BME280;2366;51.332;6.610;2022-11-20T11:10:38;100908.94;;;8.34;66.65
4705;BME280;2366;51.332;6.610;2022-11-20T11:13:06;100909.72;;;8.36;66.80
4705;BME280;2366;51.332;6.610;2022-11-20T11:15:40;100910.31;;;8.42;66.36
4705;BME280;2366;51.332;6.610;2022-11-20T11:18:10;100908.00;;;8.54;66.42
4705;BME280;2366;51.332;6.610;2022-11-20T11:20:35;100892.69;;;8.60;66.45
4705;BME280;2366;51.332;6.610;2022-11-20T11:23:03;100896.81;;;8.49;66.20
4705;BME280;2366;51.332;6.610;2022-11-20T11:25:34;100874.53;;;8.35;65.53
4705;BME280;2366;51.332;6.610;2022-11-20T11:28:17;100875.84;;;8.27;66.29
4705;BME280;2366;51.332;6.610;2022-11-20T11:30:45;100866.16;;;8.08;66.21
4705;BME280;2366;51.332;6.610;2022-11-20T11:33:32;100863.53;;;8.08;67.15
4705;BME280;2366;51.332;6.610;2022-11-20T11:36:20;100859.09;;;8.09;66.52
4705;BME280;2366;51.332;6.610;2022-11-20T11:38:51;100850.84;;;7.97;66.83
4705;BME280;2366;51.332;6.610;2022-11-20T11:41:24;100854.13;;;8.02;67.29
4705;BME280;2366;51.332;6.610;2022-11-20T11:43:58;100848.91;;;8.01;66.83
4705;BME280;2366;51.332;6.610;2022-11-20T11:46:52;100842.41;;;8.08;66.91
4705;BME280;2366;51.332;6.610;2022-11-20T11:49:19;100837.38;;;8.21;66.43
4705;BME280;2366;51.332;6.610;2022-11-20T11:51:47;100826.66;;;8.24;66.46
4705;BME280;2366;51.332;6.610;2022-11-20T11:54:35;100825.34;;;8.33;66.11
4705;BME280;2366;51.332;6.610;2022-11-20T11:57:09;100826.38;;;8.48;66.03
4705;BME280;2366;51.332;6.610;2022-11-20T11:59:54;100826.31;;;8.49;64.97
4705;BME280;2366;51.332;6.610;2022-11-20T12:05:18;100815.75;;;8.49;64.89
4705;BME280;2366;51.332;6.610;2022-11-20T12:07:47;100818.00;;;8.57;64.29
4705;BME280;2366;51.332;6.610;2022-11-20T12:15:59;100802.75;;;8.95;63.01
4705;BME280;2366;51.332;6.610;2022-11-20T12:18:25;100806.03;;;9.00;62.65
4705;BME280;2366;51.332;6.610;2022-11-20T12:24:00;100810.31;;;9.03;62.40
4705;BME280;2366;51.332;6.610;2022-11-20T12:34:58;100793.78;;;8.82;63.72
4705;BME280;2366;51.332;6.610;2022-11-20T12:42:54;100784.28;;;8.45;64.22
4705;BME280;2366;51.332;6.610;2022-11-20T12:48:22;100766.06;;;8.56;64.30
4705;BME280;2366;51.332;6.610;2022-11-20T12:56:17;100741.50;;;8.36;65.46
4705;BME280;2366;51.332;6.610;2022-11-20T13:01:39;100736.38;;;7.81;69.15
4705;BME280;2366;51.332;6.610;2022-11-20T13:07:02;100727.56;;;7.80;70.95
4705;BME280;2366;51.332;6.610;2022-11-20T13:09:28;100725.03;;;7.79;70.96
4705;BME280;2366;51.332;6.610;2022-11-20T13:12:05;100727.28;;;7.87;71.67
4705;BME280;2366;51.332;6.610;2022-11-20T13:14:40;100715.16;;;7.82;71.83
4705;BME280;2366;51.332;6.610;2022-11-20T13:19:36;100718.28;;;7.91;72.39
4705;BME280;2366;51.332;6.610;2022-11-20T13:22:02;100704.00;;;7.95;72.70
4705;BME280;2366;51.332;6.610;2022-11-20T13:24:29;100699.97;;;7.88;72.75
4705;BME280;2366;51.332;6.610;2022-11-20T13:29:35;100697.16;;;8.08;72.94
4705;BME280;2366;51.332;6.610;2022-11-20T13:32:06;100696.53;;;8.20;72.70
4705;BME280;2366;51.332;6.610;2022-11-20T13:34:35;100692.94;;;8.21;72.79
4705;BME280;2366;51.332;6.610;2022-11-20T13:37:01;100686.75;;;8.22;72.81
4705;BME280;2366;51.332;6.610;2022-11-20T13:39:34;100682.13;;;8.26;72.44
4705;BME280;2366;51.332;6.610;2022-11-20T13:44:42;100675.88;;;8.11;72.63
4705;BME280;2366;51.332;6.610;2022-11-20T13:47:35;100661.97;;;8.08;72.32
4705;BME280;2366;51.332;6.610;2022-11-20T13:50:03;100661.97;;;8.08;72.21
4705;BME280;2366;51.332;6.610;2022-11-20T13:55:37;100648.50;;;8.30;72.18
4705;BME280;2366;51.332;6.610;2022-11-20T14:01:01;100637.78;;;8.33;72.32
4705;BME280;2366;51.332;6.610;2022-11-20T14:03:34;100629.50;;;8.39;71.44
4705;BME280;2366;51.332;6.610;2022-11-20T14:06:29;100624.22;;;8.39;71.16
4705;BME280;2366;51.332;6.610;2022-11-20T14:08:57;100617.41;;;8.35;70.93
4705;BME280;2366;51.332;6.610;2022-11-20T14:11:25;100607.53;;;8.38;71.29
4705;BME280;2366;51.332;6.610;2022-11-20T14:16:25;100594.25;;;8.40;71.12
4705;BME280;2366;51.332;6.610;2022-11-20T14:18:52;100588.81;;;8.43;71.57
4705;BME280;2366;51.332;6.610;2022-11-20T14:21:26;100581.97;;;8.39;71.09
4705;BME280;2366;51.332;6.610;2022-11-20T14:23:53;100581.66;;;8.45;71.29
4705;BME280;2366;51.332;6.610;2022-11-20T14:26:19;100577.22;;;8.46;71.65
4705;BME280;2366;51.332;6.610;2022-11-20T14:28:49;100575.72;;;8.41;71.53
4705;BME280;2366;51.332;6.610;2022-11-20T14:31:22;100567.78;;;8.41;71.82
4705;BME280;2366;51.332;6.610;2022-11-20T14:33:48;100566.38;;;8.34;71.90
4705;BME280;2366;51.332;6.610;2022-11-20T14:36:19;100563.44;;;8.40;71.91
4705;BME280;2366;51.332;6.610;2022-11-20T14:38:45;100561.63;;;8.41;71.77
4705;BME280;2366;51.332;6.610;2022-11-20T14:41:22;100553.25;;;8.33;71.25
4705;BME280;2366;51.332;6.610;2022-11-20T14:43:56;100551.72;;;8.29;71.82
4705;BME280;2366;51.332;6.610;2022-11-20T14:46:23;100545.47;;;8.30;72.02
4705;BME280;2366;51.332;6.610;2022-11-20T14:48:55;100545.75;;;8.25;72.14
4705;BME280;2366;51.332;6.610;2022-11-20T14:51:34;100536.28;;;8.21;72.36
4705;BME280;2366;51.332;6.610;2022-11-20T14:54:14;100536.03;;;8.26;72.00
4705;BME280;2366;51.332;6.610;2022-11-20T14:56:40;100527.16;;;8.27;71.74
4705;BME280;2366;51.332;6.610;2022-11-20T14:59:05;100527.00;;;8.30;72.26
4705;BME280;2366;51.332;6.610;2022-11-20T15:01:33;100523.75;;;8.25;71.43